Time;durP1;ratioP1;P1;durP2;ratioP2;P2;SDS_P1;SDS_P2;PMS_P1;PMS_P2;Temp;Humidity;BMP_temperature;BMP_pressure;BME280_temperature;BME280_humidity;BME280_pressure;Samples;Min_cycle;Max_cycle;Signal;HPM_P1;HPM_P2
2022/02/04 00:09:46;;;;;;;8.15;6.45;;;;;;;3.34;53.69;94798.23;837646;71;26261;-86
2022/02/04 00:20:23;;;;;;;6.92;6.22;;;;;;;3.29;53.67;94809.05;838017;71;26300;-86
2022/02/04 00:21:26;;;;;;;7.70;6.80;;;;;;;3.28;53.65;94808.75;835061;71;26319;-85
2022/02/04 00:22:45;;;;;;;7.80;6.92;;;;;;;3.27;53.66;94811.86;836621;71;26300;-86
2022/02/04 00:23:43;;;;;;;8.93;7.85;;;;;;;3.28;53.67;94807.45;836164;71;26383;-86
2022/02/04 00:24:47;;;;;;;10.88;7.37;;;;;;;3.28;53.64;94811.34;838199;71;26277;-87
2022/02/04 00:25:58;;;;;;;9.68;7.25;;;;;;;3.27;53.63;94812.38;838257;71;26286;-86
2022/02/04 00:27:04;;;;;;;9.30;7.50;;;;;;;3.25;53.69;94812.61;836972;71;26210;-86
2022/02/04 00:28:09;;;;;;;15.93;7.50;;;;;;;3.25;53.72;94816.50;836907;71;26238;-85
2022/02/04 00:30:20;;;;;;;12.80;7.72;;;;;;;3.25;53.78;94818.31;838894;71;26245;-84
2022/02/04 00:31:41;;;;;;;10.08;8.00;;;;;;;3.25;53.71;94814.42;839802;70;26259;-83
2022/02/04 00:32:41;;;;;;;9.68;7.83;;;;;;;3.24;53.70;94811.54;839975;70;26346;-84
2022/02/04 00:33:46;;;;;;;10.03;7.28;;;;;;;3.24;53.67;94807.65;841557;70;26179;-85
2022/02/04 00:34:56;;;;;;;10.20;7.37;;;;;;;3.24;53.73;94812.31;841904;70;26261;-85
2022/02/04 00:36:01;;;;;;;10.93;8.28;;;;;;;3.24;53.69;94810.23;840459;70;26281;-86
2022/02/04 00:38:16;;;;;;;10.20;8.00;;;;;;;3.24;53.67;94806.35;841811;70;26261;-87
2022/02/04 00:39:17;;;;;;;11.73;8.15;;;;;;;3.22;53.75;94803.98;839145;70;26246;-85
2022/02/04 00:40:20;;;;;;;10.32;8.35;;;;;;;3.22;53.72;94801.39;840838;70;26289;-86
2022/02/04 00:41:26;;;;;;;9.93;8.35;;;;;;;3.20;53.74;94804.73;841638;70;26256;-85
2022/02/04 00:42:29;;;;;;;11.05;7.55;;;;;;;3.19;53.76;94800.06;841605;70;24649;-85
2022/02/04 00:43:33;;;;;;;13.32;8.15;;;;;;;3.17;53.77;94804.69;841355;70;26265;-84
2022/02/04 00:44:39;;;;;;;9.43;7.62;;;;;;;3.16;53.87;94803.13;824706;72;26341;-84
2022/02/04 00:45:57;;;;;;;8.98;6.95;;;;;;;3.16;53.99;94804.43;821762;70;24714;-86
2022/02/04 00:47:05;;;;;;;10.72;7.25;;;;;;;3.17;53.99;94805.20;835202;70;26362;-87
2022/02/04 00:48:27;;;;;;;9.58;7.50;;;;;;;3.17;53.95;94807.28;840426;70;26871;-83
2022/02/04 00:49:29;;;;;;;8.00;7.03;;;;;;;3.17;53.96;94803.91;837392;70;26316;-87
2022/02/04 00:50:36;;;;;;;10.55;7.60;;;;;;;3.16;53.97;94808.32;840066;70;26286;-86
2022/02/04 00:51:39;;;;;;;9.10;7.10;;;;;;;3.15;53.89;94811.14;839298;70;26343;-86
2022/02/04 00:52:47;;;;;;;10.28;7.40;;;;;;;3.14;53.92;94805.66;840627;70;26245;-85
2022/02/04 00:54:14;;;;;;;9.13;7.28;;;;;;;3.14;53.91;94809.55;840981;70;26347;-84
2022/02/04 00:55:28;;;;;;;9.73;7.30;;;;;;;3.14;53.91;94809.55;838290;70;26257;-86
2022/02/04 00:56:35;;;;;;;8.85;6.70;;;;;;;3.11;53.97;94806.14;840391;70;26342;-85
2022/02/04 00:57:50;;;;;;;9.13;7.10;;;;;;;3.12;54.09;94803.32;840064;70;26599;-85
2022/02/04 01:25:53;;;;;;;11.38;7.67;;;;;;;3.04;54.13;94793.81;842004;70;26375;-85
2022/02/04 01:27:01;;;;;;;11.95;8.25;;;;;;;2.99;54.43;94789.34;840564;70;26334;-87
2022/02/04 01:28:05;;;;;;;13.00;9.20;;;;;;;2.99;54.37;94779.75;840568;70;24232;-86
2022/02/04 01:29:10;;;;;;;10.95;8.35;;;;;;;2.99;54.37;94778.97;840634;70;26262;-86
2022/02/04 01:30:17;;;;;;;10.90;7.97;;;;;;;3.00;54.44;94781.83;840281;70;26473;-85
2022/02/04 01:31:21;;;;;;;8.23;6.55;;;;;;;2.98;54.41;94778.20;840188;70;26306;-86
2022/02/04 01:32:25;;;;;;;12.65;8.40;;;;;;;3.00;54.39;94780.53;840546;70;26339;-84
2022/02/04 01:33:29;;;;;;;9.98;7.40;;;;;;;2.99;54.33;94778.45;840595;70;26308;-87
2022/02/04 01:34:32;;;;;;;8.48;7.25;;;;;;;2.99;54.41;94775.09;840659;70;26250;-86
2022/02/04 01:35:36;;;;;;;9.00;7.40;;;;;;;3.00;54.35;94774.05;840516;70;26214;-87
2022/02/04 01:36:40;;;;;;;11.65;7.58;;;;;;;3.01;54.36;94774.34;840277;70;26269;-87
2022/02/04 01:37:44;;;;;;;10.32;7.60;;;;;;;3.01;54.36;94775.13;840650;70;26261;-84
2022/02/04 01:38:48;;;;;;;9.05;7.58;;;;;;;3.04;54.33;94773.08;840572;70;26260;-86
2022/02/04 01:39:52;;;;;;;10.10;8.23;;;;;;;3.04;54.34;94775.67;840561;70;26298;-88
2022/02/04 01:40:57;;;;;;;8.70;6.72;;;;;;;2.92;54.20;94754.99;840588;70;26291;-87
2022/02/04 01:42:04;;;;;;;8.80;6.78;;;;;;;3.04;54.26;94774.38;840678;70;26305;-87
2022/02/04 01:43:08;;;;;;;8.38;6.92;;;;;;;3.03;54.24;94774.90;840326;70;26293;-86
2022/02/04 01:44:26;;;;;;;8.13;6.62;;;;;;;2.99;54.11;94768.09;840629;70;26711;-87
2022/02/04 01:45:30;;;;;;;8.80;7.22;;;;;;;2.98;54.20;94773.02;840739;70;26249;-86
2022/02/04 01:46:34;;;;;;;10.03;7.25;;;;;;;2.98;54.23;94772.20;840658;70;26311;-87
2022/02/04 01:47:41;;;;;;;7.00;6.30;;;;;;;2.94;54.21;94768.02;840813;70;26355;-86
2022/02/04 01:48:44;;;;;;;7.37;6.67;;;;;;;2.97;54.21;94773.23;840465;70;26253;-88
2022/02/04 01:49:48;;;;;;;13.90;7.10;;;;;;;2.97;54.15;94776.61;840463;70;26416;-85
2022/02/04 01:50:54;;;;;;;9.40;6.90;;;;;;;2.97;54.16;94773.23;840629;70;25163;-87
2022/02/04 01:51:58;;;;;;;7.40;6.30;;;;;;;2.97;54.17;94775.31;840600;70;26295;-86
2022/02/04 01:53:02;;;;;;;7.20;6.25;;;;;;;2.98;54.15;94776.09;840688;70;26281;-86
2022/02/04 01:54:06;;;;;;;11.97;6.60;;;;;;;2.99;54.08;94778.97;840643;70;26230;-87
2022/02/04 01:55:10;;;;;;;8.25;6.28;;;;;;;3.00;54.01;94774.86;840877;70;26371;-87
2022/02/04 01:56:15;;;;;;;7.05;5.83;;;;;;;3.00;53.97;94780.05;840713;70;26738;-87
2022/02/04 01:57:19;;;;;;;6.65;5.70;;;;;;;2.99;53.92;94778.97;840431;70;26281;-85
2022/02/04 01:58:23;;;;;;;6.10;5.60;;;;;;;2.98;53.83;94780.78;840770;70;26297;-85
2022/02/04 01:59:27;;;;;;;7.35;6.30;;;;;;;2.97;53.82;94776.61;840948;70;26257;-86
2022/02/04 02:00:30;;;;;;;8.45;5.85;;;;;;;2.98;53.83;94785.16;841430;70;26330;-86
2022/02/04 02:01:34;;;;;;;6.95;5.65;;;;;;;2.98;53.82;94779.98;840652;70;26210;-86
2022/02/04 02:02:38;;;;;;;8.35;5.95;;;;;;;2.96;53.79;94775.05;840812;70;26276;-87
2022/02/04 02:03:42;;;;;;;7.30;5.80;;;;;;;2.96;53.78;94777.64;835732;70;26367;-87
2022/02/04 02:04:46;;;;;;;6.47;5.72;;;;;;;2.97;53.72;94779.72;826126;72;26319;-87
2022/02/04 02:05:51;;;;;;;7.40;5.20;;;;;;;2.96;53.69;94775.53;825978;72;26790;-86
2022/02/04 02:06:58;;;;;;;6.83;5.50;;;;;;;2.95;53.68;94767.50;825428;72;26331;-85
2022/02/04 02:08:11;;;;;;;6.28;5.67;;;;;;;2.96;53.63;94780.23;825414;72;26311;-86
2022/02/04 02:09:15;;;;;;;7.47;5.45;;;;;;;2.95;53.53;94770.09;825255;72;26270;-84
2022/02/04 02:10:20;;;;;;;6.80;5.30;;;;;;;2.95;53.57;94768.80;825273;72;26258;-86
2022/02/04 02:11:24;;;;;;;9.70;5.97;;;;;;;2.93;53.51;94765.13;825298;72;26359;-86
2022/02/04 02:12:34;;;;;;;7.33;5.90;;;;;;;2.92;53.50;94764.06;825091;72;26363;-87
2022/02/04 02:13:48;;;;;;;5.35;4.85;;;;;;;2.91;53.46;94758.10;824507;71;26684;-87
2022/02/04 02:14:46;;;;;;;5.92;5.30;;;;;;;2.91;53.49;94759.39;824102;71;26405;-87
2022/02/04 02:41:47;;;;;;;8.23;5.15;;;;;;;2.75;53.41;94748.48;822938;72;26256;-85
2022/02/04 02:43:29;;;;;;;5.85;5.28;;;;;;;2.73;53.43;94755.19;822793;72;26334;-84
2022/02/04 02:44:37;;;;;;;10.60;6.22;;;;;;;2.71;53.65;94753.34;820490;72;26268;-84
2022/02/04 02:45:51;;;;;;;6.40;5.80;;;;;;;2.71;53.73;94751.27;820375;72;26361;-82
2022/02/04 02:51:01;;;;;;;8.88;5.42;;;;;;;2.70;53.60;94753.08;778304;75;26286;-87
2022/02/04 02:51:59;;;;;;;6.45;5.75;;;;;;;2.69;53.52;94754.59;778325;74;26774;-87
2022/02/04 02:54:12;;;;;;;6.17;5.58;;;;;;;2.68;53.52;94754.33;794436;71;26320;-84
2022/02/04 03:00:24;;;;;;;8.13;5.67;;;;;;;2.66;53.60;94760.25;823950;71;26254;-87
2022/02/04 03:01:16;;;;;;;7.00;5.70;;;;;;;2.65;53.61;94759.45;821735;71;26798;-85
2022/02/04 03:02:22;;;;;;;6.05;5.42;;;;;;;2.64;53.76;94768.77;823567;72;26218;-86
2022/02/04 03:03:30;;;;;;;11.40;6.50;;;;;;;2.63;53.66;94756.30;823746;72;26699;-86
2022/02/04 03:04:31;;;;;;;5.95;5.35;;;;;;;2.62;53.66;94759.92;823616;71;26318;-86
2022/02/04 03:05:36;;;;;;;7.05;5.15;;;;;;;2.64;53.63;94751.41;823877;72;26317;-87
2022/02/04 03:06:40;;;;;;;7.58;6.30;;;;;;;2.64;53.64;94758.40;798651;74;26298;-87
2022/02/04 03:07:44;;;;;;;6.03;5.42;;;;;;;2.63;53.66;94758.11;799800;72;26283;-84
2022/02/04 03:08:48;;;;;;;6.10;5.53;;;;;;;2.63;53.64;94761.48;823702;71;26289;-85
2022/02/04 03:09:52;;;;;;;6.03;5.35;;;;;;;2.64;53.68;94762.28;823781;72;26748;-87
2022/02/04 03:10:58;;;;;;;7.72;5.55;;;;;;;2.63;53.65;94753.70;823873;72;26218;-87
2022/02/04 03:12:03;;;;;;;6.15;5.35;;;;;;;2.63;53.64;94749.82;823703;72;26747;-87
2022/02/04 03:13:07;;;;;;;7.10;5.53;;;;;;;2.64;53.63;94757.88;823919;72;26262;-85
2022/02/04 03:14:11;;;;;;;7.37;5.70;;;;;;;2.64;53.59;94755.81;823624;72;26301;-84
2022/02/04 03:15:15;;;;;;;8.18;6.03;;;;;;;2.63;53.60;94759.41;823751;72;26273;-85
2022/02/04 03:16:21;;;;;;;7.72;6.03;;;;;;;2.61;53.55;94757.81;823836;72;26276;-86
2022/02/04 03:17:24;;;;;;;7.22;5.95;;;;;;;2.64;53.54;94759.70;823821;71;26298;-85
2022/02/04 03:18:33;;;;;;;7.25;6.33;;;;;;;2.63;53.52;94755.00;823675;72;24721;-86
2022/02/04 03:19:35;;;;;;;6.00;5.40;;;;;;;2.61;53.47;94755.74;823467;71;26235;-85
2022/02/04 03:20:47;;;;;;;6.42;5.37;;;;;;;2.60;53.44;94751.59;823831;72;26767;-85
2022/02/04 03:21:46;;;;;;;7.12;5.85;;;;;;;2.60;53.42;94756.77;821396;71;26286;-85
2022/02/04 03:22:51;;;;;;;7.03;5.33;;;;;;;2.59;53.39;94753.38;823737;72;26286;-87
2022/02/04 03:24:01;;;;;;;6.85;5.30;;;;;;;2.60;53.40;94751.59;823859;72;26294;-85
2022/02/04 03:25:05;;;;;;;6.75;5.33;;;;;;;2.60;53.36;94751.59;823172;71;26286;-85
2022/02/04 03:26:18;;;;;;;6.12;5.15;;;;;;;2.59;53.42;94754.67;823722;71;26274;-85
2022/02/04 03:27:13;;;;;;;5.83;5.20;;;;;;;2.58;53.42;94752.33;821315;71;26281;-87
2022/02/04 03:28:24;;;;;;;7.30;5.10;;;;;;;2.58;53.45;94753.62;823671;72;26996;-85
2022/02/04 03:29:30;;;;;;;9.18;5.92;;;;;;;2.58;53.43;94751.04;823367;71;26715;-85
2022/02/04 03:30:35;;;;;;;6.20;5.30;;;;;;;2.57;53.44;94750.74;823741;71;26359;-85
2022/02/04 03:31:47;;;;;;;6.37;5.70;;;;;;;2.56;53.41;94749.19;823811;71;26265;-86
2022/02/04 03:32:49;;;;;;;6.30;5.62;;;;;;;2.55;53.35;94754.08;821979;71;26978;-86
2022/02/04 03:33:49;;;;;;;6.50;5.58;;;;;;;2.55;53.48;94745.79;823663;71;26285;-87
2022/02/04 03:34:53;;;;;;;8.28;6.40;;;;;;;2.54;53.58;94744.23;826183;71;26305;-84
2022/02/04 03:35:57;;;;;;;7.72;5.97;;;;;;;2.52;53.67;94750.16;827301;71;26226;-86
2022/02/04 03:37:00;;;;;;;6.40;5.80;;;;;;;2.51;53.70;94744.67;819445;72;26268;-86
2022/02/04 03:38:05;;;;;;;8.88;6.00;;;;;;;2.50;53.66;94742.34;819224;71;26319;-85
2022/02/04 03:39:08;;;;;;;6.28;5.30;;;;;;;2.49;53.68;94736.35;827813;71;26255;-86
2022/02/04 03:40:13;;;;;;;5.67;5.17;;;;;;;2.49;53.77;94740.23;827811;71;26355;-86
2022/02/04 03:41:17;;;;;;;8.13;5.70;;;;;;;2.49;53.75;94736.87;828342;71;26238;-85
2022/02/04 03:42:21;;;;;;;7.25;5.55;;;;;;;2.48;53.76;94738.68;827874;71;26226;-88
2022/02/04 03:43:24;;;;;;;7.70;5.80;;;;;;;2.48;53.79;94729.62;827665;71;26315;-84
2022/02/04 03:44:29;;;;;;;8.03;5.80;;;;;;;2.49;53.74;94736.35;828295;71;26256;-85
2022/02/04 03:45:33;;;;;;;7.80;6.40;;;;;;;2.51;53.78;94738.72;833877;70;26202;-84
2022/02/04 03:46:37;;;;;;;9.63;6.30;;;;;;;2.50;53.77;94734.05;828051;71;26230;-85
2022/02/04 03:47:42;;;;;;;8.83;6.20;;;;;;;2.51;53.87;94741.31;828314;71;26270;-83
2022/02/04 03:48:47;;;;;;;8.30;6.40;;;;;;;2.50;53.80;94740.53;828188;71;26237;-86
2022/02/04 03:49:50;;;;;;;8.08;6.85;;;;;;;2.51;53.74;94744.67;827864;71;26372;-84
2022/02/04 03:50:56;;;;;;;8.03;6.60;;;;;;;2.53;53.82;94737.98;827391;71;26348;-85
2022/02/04 03:51:59;;;;;;;7.60;6.10;;;;;;;2.51;53.81;94736.13;827656;71;26242;-85
2022/02/04 03:53:05;;;;;;;11.50;6.65;;;;;;;2.50;53.77;94735.35;827538;71;26227;-85
2022/02/04 03:54:09;;;;;;;10.18;7.42;;;;;;;2.50;53.75;94733.28;827392;71;26462;-85
2022/02/04 03:55:16;;;;;;;9.73;6.53;;;;;;;2.48;53.82;94729.62;827666;71;26303;-86
2022/02/04 03:56:19;;;;;;;8.40;7.47;;;;;;;2.48;53.93;94729.62;828004;71;26752;-83
2022/02/04 03:57:24;;;;;;;10.63;8.08;;;;;;;2.46;53.99;94729.58;828312;71;26616;-84
2022/02/04 03:58:31;;;;;;;11.80;7.55;;;;;;;2.43;54.05;94729.50;828222;71;26255;-85
2022/02/04 03:59:33;;;;;;;9.75;8.28;;;;;;;2.36;54.28;94732.23;833045;70;26302;-85
2022/02/04 04:00:37;;;;;;;14.25;9.60;;;;;;;2.32;54.58;94734.23;827137;71;24649;-85
2022/02/04 04:01:41;;;;;;;11.50;8.98;;;;;;;2.25;54.72;94729.19;829680;70;26345;-84
2022/02/04 04:02:46;;;;;;;9.48;8.53;;;;;;;2.20;54.88;94730.38;828526;70;26261;-82
2022/02/04 04:03:50;;;;;;;10.53;8.65;;;;;;;2.17;55.10;94730.33;832247;70;26365;-85
2022/02/04 04:04:54;;;;;;;10.58;8.28;;;;;;;2.16;55.20;94730.55;837186;70;26251;-86
2022/02/04 04:05:58;;;;;;;13.10;9.43;;;;;;;2.16;55.30;94733.14;826734;71;26267;-86
2022/02/04 04:07:02;;;;;;;14.05;9.50;;;;;;;2.18;55.47;94725.93;826607;71;26254;-84
2022/02/04 04:08:06;;;;;;;10.38;8.28;;;;;;;2.05;55.50;94704.17;826892;71;26743;-86
2022/02/04 04:09:09;;;;;;;11.73;8.85;;;;;;;2.17;55.57;94723.86;831984;70;26336;-85
2022/02/04 04:10:24;;;;;;;10.63;9.18;;;;;;;2.17;55.58;94726.45;832202;70;26278;-86
2022/02/04 04:11:26;;;;;;;11.97;8.73;;;;;;;2.18;55.59;94725.41;826805;71;26233;-85
2022/02/04 04:12:29;;;;;;;11.97;9.30;;;;;;;2.17;55.59;94719.16;826634;71;26779;-84
2022/02/04 04:13:35;;;;;;;11.97;9.25;;;;;;;2.15;55.66;94722.00;833753;70;24360;-85
2022/02/04 04:14:39;;;;;;;10.15;9.05;;;;;;;2.16;55.76;94716.31;831761;70;26272;-86
2022/02/04 04:15:43;;;;;;;11.60;9.60;;;;;;;2.15;55.81;94716.83;831767;70;26547;-85
2022/02/04 04:16:48;;;;;;;13.08;9.65;;;;;;;2.15;55.85;94720.71;830815;70;26320;-87
2022/02/04 04:17:55;;;;;;;13.03;9.90;;;;;;;2.13;55.78;94720.64;837433;70;26247;-85
2022/02/04 04:18:59;;;;;;;15.93;10.85;;;;;;;2.03;55.87;94721.24;829533;70;26752;-85
2022/02/04 04:20:03;;;;;;;13.53;10.15;;;;;;;2.00;56.09;94719.87;831653;70;26735;-88
2022/02/04 04:21:07;;;;;;;12.73;10.28;;;;;;;1.96;56.17;94716.69;826755;71;26708;-85
2022/02/04 04:22:11;;;;;;;13.60;10.55;;;;;;;1.97;56.23;94719.57;831734;70;26428;-85
2022/02/04 04:23:15;;;;;;;13.28;10.45;;;;;;;1.93;56.21;94724.92;826658;71;26712;-84
2022/02/04 04:24:19;;;;;;;12.98;10.20;;;;;;;1.89;56.29;94721.22;826711;71;26354;-87
2022/02/04 04:25:23;;;;;;;13.43;10.38;;;;;;;1.81;56.57;94719.75;834568;70;26322;-84
2022/02/04 04:26:27;;;;;;;14.45;10.13;;;;;;;1.82;56.76;94720.53;832722;70;26276;-84
2022/02/04 04:27:31;;;;;;;12.68;10.50;;;;;;;1.85;56.84;94722.69;826815;71;26330;-85
2022/02/04 04:28:35;;;;;;;15.50;11.73;;;;;;;1.79;56.84;94720.48;828443;71;27084;-87
2022/02/04 04:29:39;;;;;;;13.38;11.03;;;;;;;1.73;57.02;94726.05;831703;70;26287;-85
2022/02/04 04:30:42;;;;;;;17.32;10.75;;;;;;;1.68;57.09;94729.03;829799;70;24358;-83
2022/02/04 04:31:46;;;;;;;15.35;11.40;;;;;;;1.60;57.17;94728.38;827619;70;26348;-84
2022/02/04 04:32:52;;;;;;;15.03;11.20;;;;;;;1.59;57.32;94728.59;826731;71;26263;-84
2022/02/04 04:33:55;;;;;;;12.63;10.38;;;;;;;1.60;57.50;94732.73;831037;70;26294;-84
2022/02/04 04:34:59;;;;;;;13.90;9.90;;;;;;;1.63;57.49;94732.30;828895;70;26960;-84
2022/02/04 04:36:03;;;;;;;14.25;11.55;;;;;;;1.63;57.56;94728.94;828672;70;26780;-86
2022/02/04 04:37:07;;;;;;;16.02;11.78;;;;;;;1.66;57.59;94729.25;830962;70;26263;-85
2022/02/04 04:38:30;;;;;;;15.75;11.18;;;;;;;1.67;57.48;94730.84;831747;70;26415;-85
2022/02/04 04:39:33;;;;;;;12.78;10.23;;;;;;;1.61;57.48;94726.56;832649;70;26226;-84
2022/02/04 04:42:09;;;;;;;15.48;11.25;;;;;;;1.60;57.66;94724.49;828925;71;26679;-85
2022/02/04 05:27:56;;;;;;;13.72;11.60;;;;;;;1.51;58.41;94754.78;826511;71;26270;-79
2022/02/04 05:28:44;;;;;;;15.35;11.25;;;;;;;1.51;58.15;94751.69;827114;70;26811;-79
2022/02/04 05:29:43;;;;;;;13.85;7.78;;;;;;;1.48;58.09;94750.05;825684;71;26302;-79
2022/02/04 05:30:46;;;;;;;14.78;11.18;;;;;;;2.22;63.94;94746.45;831529;70;26268;-79
2022/02/04 05:31:50;;;;;;;13.83;11.18;;;;;;;2.16;60.91;94746.86;826440;71;26329;-79
2022/02/04 05:32:55;;;;;;;14.93;11.57;;;;;;;2.11;59.62;94747.25;831880;70;26807;-80
2022/02/04 05:33:59;;;;;;;14.53;11.35;;;;;;;2.08;58.90;94749.80;826520;71;26383;-78
2022/02/04 05:35:07;;;;;;;16.45;12.13;;;;;;;2.02;58.72;94748.13;826471;71;26731;-81
2022/02/04 05:36:09;;;;;;;14.00;11.08;;;;;;;2.01;58.55;94753.03;826497;71;26223;-78
2022/02/04 05:37:15;;;;;;;18.07;11.55;;;;;;;1.99;58.38;94751.18;826649;71;26218;-79
2022/02/04 05:38:20;;;;;;;15.75;11.33;;;;;;;1.97;58.15;94750.10;836743;70;26702;-79
2022/02/04 05:39:28;;;;;;;15.38;11.15;;;;;;;1.96;57.98;94754.20;829056;70;26297;-79
2022/02/04 05:40:37;;;;;;;15.30;10.78;;;;;;;1.96;57.98;94752.39;831476;70;26283;-79
2022/02/04 05:41:39;;;;;;;14.43;11.97;;;;;;;1.97;58.02;94755.80;830454;70;26326;-79
2022/02/04 05:42:49;;;;;;;14.03;11.50;;;;;;;1.96;57.98;94749.81;826239;71;26437;-79
2022/02/04 05:43:47;;;;;;;18.50;12.93;;;;;;;1.96;57.89;94751.10;825508;71;26316;-79
2022/02/04 05:45:03;;;;;;;20.45;12.88;;;;;;;1.96;57.82;94748.52;826704;71;26712;-78
2022/02/04 05:47:13;;;;;;;17.17;12.75;;;;;;;1.90;57.76;94749.94;826874;70;27164;-78
2022/02/04 05:48:10;;;;;;;20.25;13.45;;;;;;;1.90;57.81;94758.48;827896;70;26254;-79
2022/02/04 05:49:16;;;;;;;20.55;13.53;;;;;;;1.85;57.82;94760.19;832332;70;26369;-77
2022/02/04 05:50:28;;;;;;;19.50;13.25;;;;;;;1.85;57.92;94757.09;837974;70;26253;-78
2022/02/04 05:51:54;;;;;;;18.80;13.08;;;;;;;1.85;58.02;94758.90;840687;70;26735;-76
2022/02/04 05:53:16;;;;;;;17.50;12.88;;;;;;;1.85;58.00;94755.80;833956;70;26291;-79
2022/02/04 05:54:16;;;;;;;16.82;13.10;;;;;;;1.79;58.03;94754.89;809933;72;26358;-78
2022/02/04 05:55:30;;;;;;;17.85;13.03;;;;;;;1.78;58.09;94760.28;807641;73;26330;-79
2022/02/04 05:57:53;;;;;;;18.80;13.13;;;;;;;1.80;58.21;94754.38;801885;73;26837;-80
2022/02/04 05:58:55;;;;;;;21.42;13.20;;;;;;;1.81;58.22;94758.56;792966;74;26305;-79
2022/02/04 06:01:24;;;;;;;24.20;16.10;;;;;;;1.74;57.85;94758.65;808858;73;24323;-78
2022/02/04 06:02:25;;;;;;;20.85;14.25;;;;;;;1.61;57.91;94758.89;807575;72;26338;-78
2022/02/04 06:03:44;;;;;;;19.50;14.83;;;;;;;1.60;58.09;94759.41;807775;72;26318;-80
2022/02/04 06:04:46;;;;;;;19.77;14.20;;;;;;;1.55;58.06;94761.08;807675;72;26307;-79
2022/02/04 06:06:04;;;;;;;21.15;14.30;;;;;;;1.46;58.02;94755.47;808143;72;26358;-79
2022/02/04 06:12:03;;;;;;;18.32;13.65;;;;;;;1.09;58.73;94759.48;808970;73;26335;-77
2022/02/04 06:23:17;;;;;;;23.27;13.70;;;;;;;1.32;58.88;94773.48;808686;73;26355;-78
2022/02/04 06:24:21;;;;;;;16.37;12.58;;;;;;;1.33;58.75;94777.12;808656;73;26257;-79
2022/02/04 06:25:25;;;;;;;16.75;12.85;;;;;;;1.31;58.75;94779.14;808771;73;26278;-78
2022/02/04 06:26:29;;;;;;;18.42;11.97;;;;;;;1.29;58.81;94778.58;808999;73;26384;-77
2022/02/04 06:27:32;;;;;;;17.27;12.70;;;;;;;1.33;58.87;94782.29;808819;73;26271;-77
2022/02/04 06:28:38;;;;;;;17.50;12.23;;;;;;;1.36;58.86;94788.32;808796;73;26388;-78
2022/02/04 06:29:42;;;;;;;15.88;12.60;;;;;;;1.39;58.69;94783.20;808709;73;26406;-78
2022/02/04 06:30:47;;;;;;;16.57;12.50;;;;;;;1.42;58.57;94785.84;808747;73;26792;-77
2022/02/04 06:31:51;;;;;;;18.48;12.93;;;;;;;1.43;58.44;94792.09;808832;73;26282;-80
2022/02/04 06:32:54;;;;;;;17.45;12.68;;;;;;;1.44;58.42;94788.98;803360;73;26297;-79
2022/02/04 06:33:58;;;;;;;15.23;12.15;;;;;;;1.42;58.25;94795.70;806078;73;26341;-76
2022/02/04 06:35:04;;;;;;;15.00;11.90;;;;;;;1.43;58.25;94799.06;808912;73;26426;-78
2022/02/04 06:36:07;;;;;;;18.95;13.22;;;;;;;1.42;58.12;94794.41;816649;72;26343;-78
2022/02/04 06:37:11;;;;;;;19.73;12.70;;;;;;;1.40;58.55;94795.13;805920;73;26353;-78
2022/02/04 06:38:15;;;;;;;19.05;12.82;;;;;;;1.40;58.92;94788.16;813889;72;26377;-78
2022/02/04 06:39:20;;;;;;;22.48;14.73;;;;;;;1.42;58.80;94790.53;819115;71;26287;-78
2022/02/04 06:40:24;;;;;;;18.87;13.05;;;;;;;1.42;58.57;94787.95;837355;71;26707;-78
2022/02/04 06:41:28;;;;;;;17.67;13.15;;;;;;;1.44;58.44;94793.67;837276;71;26289;-77
2022/02/04 06:42:31;;;;;;;18.07;13.48;;;;;;;1.46;58.34;94792.14;833112;70;26261;-79
2022/02/04 06:43:36;;;;;;;21.73;13.05;;;;;;;1.49;58.28;94801.54;825429;71;26301;-78
2022/02/04 06:44:40;;;;;;;19.48;13.00;;;;;;;1.49;58.21;94802.05;822253;70;26283;-79
2022/02/04 06:45:43;;;;;;;17.80;12.85;;;;;;;1.49;58.23;94803.34;823013;70;26209;-79
2022/02/04 06:46:47;;;;;;;17.95;13.22;;;;;;;1.51;58.27;94795.64;822658;71;26267;-79
2022/02/04 06:47:51;;;;;;;15.20;12.35;;;;;;;1.53;58.27;94795.42;822488;71;26289;-78
2022/02/04 06:48:55;;;;;;;17.95;12.05;;;;;;;1.52;58.22;94799.81;822369;72;26477;-78
2022/02/04 06:49:58;;;;;;;16.20;12.75;;;;;;;1.54;58.22;94800.38;828537;71;26351;-78
2022/02/04 06:51:02;;;;;;;16.90;13.08;;;;;;;1.57;58.19;94798.62;837367;71;26207;-78
2022/02/04 06:52:06;;;;;;;15.23;12.78;;;;;;;1.58;58.23;94802.80;826124;71;26288;-80
2022/02/04 06:53:10;;;;;;;15.85;12.70;;;;;;;1.61;58.22;94795.09;822195;72;26435;-79
2022/02/04 06:54:14;;;;;;;17.82;14.43;;;;;;;1.65;58.11;94796.22;822370;72;26264;-80
2022/02/04 06:55:19;;;;;;;15.95;13.18;;;;;;;1.68;58.09;94790.59;822171;72;26712;-78
2022/02/04 06:56:23;;;;;;;18.52;13.40;;;;;;;1.70;58.00;94788.56;822354;72;26285;-78
2022/02/04 06:57:30;;;;;;;18.05;12.95;;;;;;;1.70;58.12;94788.56;820469;72;26272;-80
2022/02/04 06:58:36;;;;;;;20.08;13.80;;;;;;;1.73;58.07;94788.13;805014;73;26685;-79
2022/02/04 06:59:52;;;;;;;22.77;13.85;;;;;;;1.77;58.00;94791.84;809295;72;26287;-80
2022/02/04 07:00:58;;;;;;;18.95;14.70;;;;;;;1.82;57.96;94792.45;822359;72;26272;-77
2022/02/04 07:02:06;;;;;;;20.10;15.00;;;;;;;1.85;57.77;94791.23;822300;72;26242;-77
2022/02/04 07:03:11;;;;;;;23.47;15.25;;;;;;;1.88;57.74;94794.14;804895;73;26291;-79
2022/02/04 07:04:15;;;;;;;23.32;15.05;;;;;;;1.90;57.69;94795.99;805104;72;26443;-79
2022/02/04 07:05:21;;;;;;;21.45;15.68;;;;;;;1.93;57.68;94797.36;822470;72;26220;-83
2022/02/04 07:06:38;;;;;;;21.90;14.20;;;;;;;1.94;57.55;94791.94;823834;72;26202;-91
2022/02/04 07:08:09;;;;;;;20.50;14.68;;;;;;;1.98;57.48;94800.05;806867;73;26280;-92
2022/02/04 07:09:21;;;;;;;19.98;13.48;;;;;;;2.02;57.47;94801.17;814478;70;26237;-92
2022/02/04 07:10:26;;;;;;;17.77;14.05;;;;;;;2.10;57.52;94796.16;825058;72;26303;-93
2022/02/04 07:13:04;;;;;;;16.45;13.53;;;;;;;2.21;57.31;94797.97;826492;72;26246;-92
2022/02/04 07:15:51;;;;;;;14.85;11.43;;;;;;;2.35;56.85;94798.48;826746;72;26277;-91
2022/02/04 07:20:03;;;;;;;18.20;12.95;;;;;;;2.63;56.34;94799.03;826659;72;26387;-92
2022/02/04 07:21:08;;;;;;;18.40;13.88;;;;;;;2.77;56.31;94796.45;826239;72;26315;-92
2022/02/04 07:22:30;;;;;;;19.80;13.68;;;;;;;2.92;56.19;94795.16;826895;72;26237;-92
2022/02/04 07:23:46;;;;;;;15.53;12.43;;;;;;;3.09;55.98;94793.92;827075;72;26214;-92
2022/02/04 07:25:13;;;;;;;19.10;13.90;;;;;;;3.32;55.31;94789.11;826576;72;26199;-93
2022/02/04 07:26:30;;;;;;;;;;;;;;;;;;;;;
2022/02/04 07:27:45;;;;;;;20.25;13.40;;;;;;;3.80;54.27;94784.67;824273;72;26222;-92
2022/02/04 07:28:54;;;;;;;16.87;13.13;;;;;;;4.17;54.08;94782.06;805377;73;26225;-89
2022/02/04 07:32:42;;;;;;;19.45;15.10;;;;;;;4.76;52.49;94783.55;821960;72;26268;-91
2022/02/04 07:33:36;;;;;;;23.47;16.57;;;;;;;5.43;51.69;94785.48;808584;72;26252;-92
2022/02/04 07:42:18;;;;;;;18.80;15.35;;;;;;;7.45;47.72;94787.50;737136;80;26353;-91
2022/02/04 07:43:22;;;;;;;18.30;14.85;;;;;;;7.88;46.19;94786.71;737574;80;26336;-91
2022/02/04 07:44:30;;;;;;;18.27;15.40;;;;;;;7.98;45.28;94782.25;736832;80;26363;-93
2022/02/04 07:46:28;;;;;;;;;;;;;;;;;;;;;
2022/02/04 07:47:30;;;;;;;20.57;15.80;;;;;;;8.23;44.49;94785.36;730116;80;26332;-91
2022/02/04 07:49:04;;;;;;;;;;;;;;;;;;;;;
2022/02/04 07:50:45;;;;;;;19.45;15.13;;;;;;;8.91;43.91;94782.78;810596;72;27119;-92
2022/02/04 07:53:37;;;;;;;16.45;13.60;;;;;;;9.31;42.68;94795.39;744468;79;26347;-92
2022/02/04 08:12:36;;;;;;;17.37;14.25;;;;;;;;;;760368;76;26327;-90
2022/02/04 09:11:38;;;;;;;;;;;;;;;;;;;;;
2022/02/04 09:16:48;;;;;;;18.98;16.60;;;;;;;12.21;36.70;94760.47;724729;80;26377;-92
2022/02/04 09:19:40;;;;;;;22.80;16.48;;;;;;;12.72;37.41;94745.56;742901;80;26253;-89
2022/02/04 09:22:50;;;;;;;22.10;17.32;;;;;;;13.40;36.52;94747.28;775317;75;26326;-87
2022/02/04 09:23:54;;;;;;;27.02;17.77;;;;;;;13.56;35.96;94743.73;771719;77;26768;-85
2022/02/04 09:24:58;;;;;;;20.40;18.20;;;;;;;13.67;35.13;94746.16;772805;76;26829;-89
2022/02/04 09:26:10;;;;;;;22.65;18.35;;;;;;;13.59;33.79;94736.55;772224;76;26278;-87
2022/02/04 09:27:10;;;;;;;22.50;17.48;;;;;;;13.51;33.93;94740.45;772003;77;26332;-89
2022/02/04 09:28:16;;;;;;;20.75;17.50;;;;;;;13.37;33.76;94737.88;774828;76;26422;-90
2022/02/04 09:29:20;;;;;;;18.95;16.60;;;;;;;13.22;33.65;94732.39;773376;77;26341;-90